sensor_id;sensor_type;location;lat;lon;timestamp;P1;durP1;ratioP1;P2;durP2;ratioP2
18296;SDS011;18066;52.106;5.534;2023-09-07T00:01:51;7.90;;;5.43;;
18296;SDS011;18066;52.106;5.534;2023-09-07T00:04:19;5.50;;;4.80;;
18296;SDS011;18066;52.106;5.534;2023-09-07T00:06:47;5.75;;;4.80;;
18296;SDS011;18066;52.106;5.534;2023-09-07T00:09:14;7.15;;;5.38;;
18296;SDS011;18066;52.106;5.534;2023-09-07T00:11:43;8.02;;;5.80;;
18296;SDS011;18066;52.106;5.534;2023-09-07T00:14:10;7.78;;;6.47;;
18296;SDS011;18066;52.106;5.534;2023-09-07T00:16:37;8.98;;;6.57;;
18296;SDS011;18066;52.106;5.534;2023-09-07T00:19:03;10.15;;;6.47;;
18296;SDS011;18066;52.106;5.534;2023-09-07T00:21:32;9.18;;;7.18;;
18296;SDS011;18066;52.106;5.534;2023-09-07T00:23:58;7.80;;;6.13;;
18296;SDS011;18066;52.106;5.534;2023-09-07T00:26:30;6.97;;;5.53;;
18296;SDS011;18066;52.106;5.534;2023-09-07T00:28:57;6.18;;;5.10;;
18296;SDS011;18066;52.106;5.534;2023-09-07T00:31:24;7.40;;;5.85;;
18296;SDS011;18066;52.106;5.534;2023-09-07T00:33:50;5.97;;;5.38;;
18296;SDS011;18066;52.106;5.534;2023-09-07T00:36:17;7.90;;;6.00;;
18296;SDS011;18066;52.106;5.534;2023-09-07T00:38:46;7.75;;;6.00;;
18296;SDS011;18066;52.106;5.534;2023-09-07T00:41:12;6.95;;;5.32;;
18296;SDS011;18066;52.106;5.534;2023-09-07T00:43:40;7.50;;;4.85;;
18296;SDS011;18066;52.106;5.534;2023-09-07T00:46:07;7.30;;;4.10;;
18296;SDS011;18066;52.106;5.534;2023-09-07T00:48:34;9.77;;;4.75;;
18296;SDS011;18066;52.106;5.534;2023-09-07T00:51:01;8.05;;;6.13;;
18296;SDS011;18066;52.106;5.534;2023-09-07T00:53:28;6.03;;;4.95;;
18296;SDS011;18066;52.106;5.534;2023-09-07T00:55:57;7.63;;;5.07;;
18296;SDS011;18066;52.106;5.534;2023-09-07T00:58:24;5.13;;;4.13;;
18296;SDS011;18066;52.106;5.534;2023-09-07T01:00:52;7.13;;;4.55;;
18296;SDS011;18066;52.106;5.534;2023-09-07T01:03:19;8.45;;;5.80;;
18296;SDS011;18066;52.106;5.534;2023-09-07T01:05:47;4.45;;;2.95;;
18296;SDS011;18066;52.106;5.534;2023-09-07T01:08:20;6.13;;;3.60;;
18296;SDS011;18066;52.106;5.534;2023-09-07T01:10:50;4.10;;;3.63;;
18296;SDS011;18066;52.106;5.534;2023-09-07T01:13:19;5.85;;;4.50;;
18296;SDS011;18066;52.106;5.534;2023-09-07T01:15:46;5.68;;;4.93;;
18296;SDS011;18066;52.106;5.534;2023-09-07T01:18:13;4.82;;;4.32;;
18296;SDS011;18066;52.106;5.534;2023-09-07T01:20:41;4.63;;;4.13;;
18296;SDS011;18066;52.106;5.534;2023-09-07T01:23:11;7.10;;;4.07;;
18296;SDS011;18066;52.106;5.534;2023-09-07T01:25:39;5.07;;;3.80;;
18296;SDS011;18066;52.106;5.534;2023-09-07T01:28:06;6.75;;;4.65;;
18296;SDS011;18066;52.106;5.534;2023-09-07T01:30:36;4.82;;;4.25;;
18296;SDS011;18066;52.106;5.534;2023-09-07T01:33:04;5.60;;;4.70;;
18296;SDS011;18066;52.106;5.534;2023-09-07T01:35:31;5.15;;;4.60;;
18296;SDS011;18066;52.106;5.534;2023-09-07T01:37:59;6.18;;;5.28;;
18296;SDS011;18066;52.106;5.534;2023-09-07T01:40:28;6.10;;;5.20;;
18296;SDS011;18066;52.106;5.534;2023-09-07T01:42:54;7.13;;;5.10;;
18296;SDS011;18066;52.106;5.534;2023-09-07T01:45:21;7.82;;;5.43;;
18296;SDS011;18066;52.106;5.534;2023-09-07T01:47:48;6.03;;;4.97;;
18296;SDS011;18066;52.106;5.534;2023-09-07T01:50:15;5.88;;;4.28;;
18296;SDS011;18066;52.106;5.534;2023-09-07T01:52:42;5.88;;;5.30;;
18296;SDS011;18066;52.106;5.534;2023-09-07T01:55:11;6.18;;;4.53;;
18296;SDS011;18066;52.106;5.534;2023-09-07T01:57:39;6.97;;;5.00;;
18296;SDS011;18066;52.106;5.534;2023-09-07T02:00:06;9.15;;;4.80;;
18296;SDS011;18066;52.106;5.534;2023-09-07T02:02:34;7.15;;;4.97;;
18296;SDS011;18066;52.106;5.534;2023-09-07T02:05:01;5.78;;;4.95;;
18296;SDS011;18066;52.106;5.534;2023-09-07T02:07:28;6.43;;;5.15;;
18296;SDS011;18066;52.106;5.534;2023-09-07T02:09:54;5.82;;;5.10;;
18296;SDS011;18066;52.106;5.534;2023-09-07T02:12:22;5.15;;;4.65;;
18296;SDS011;18066;52.106;5.534;2023-09-07T02:14:50;6.00;;;4.90;;
18296;SDS011;18066;52.106;5.534;2023-09-07T02:17:17;7.35;;;4.93;;
18296;SDS011;18066;52.106;5.534;2023-09-07T02:19:43;6.95;;;4.65;;
18296;SDS011;18066;52.106;5.534;2023-09-07T02:22:10;7.53;;;5.22;;
18296;SDS011;18066;52.106;5.534;2023-09-07T02:24:37;6.45;;;5.60;;
18296;SDS011;18066;52.106;5.534;2023-09-07T02:27:04;7.00;;;5.50;;
18296;SDS011;18066;52.106;5.534;2023-09-07T02:29:31;7.78;;;5.22;;
18296;SDS011;18066;52.106;5.534;2023-09-07T02:31:59;6.65;;;4.75;;
18296;SDS011;18066;52.106;5.534;2023-09-07T02:34:26;6.00;;;4.75;;
18296;SDS011;18066;52.106;5.534;2023-09-07T02:36:53;6.80;;;5.25;;
18296;SDS011;18066;52.106;5.534;2023-09-07T02:39:19;5.70;;;4.53;;
18296;SDS011;18066;52.106;5.534;2023-09-07T02:41:46;5.55;;;4.22;;
18296;SDS011;18066;52.106;5.534;2023-09-07T02:44:13;7.20;;;4.65;;
18296;SDS011;18066;52.106;5.534;2023-09-07T02:46:40;8.15;;;4.93;;
18296;SDS011;18066;52.106;5.534;2023-09-07T02:49:08;6.75;;;4.20;;
18296;SDS011;18066;52.106;5.534;2023-09-07T02:51:35;4.95;;;4.43;;
18296;SDS011;18066;52.106;5.534;2023-09-07T02:54:02;7.25;;;4.80;;
18296;SDS011;18066;52.106;5.534;2023-09-07T02:56:29;7.00;;;4.47;;
18296;SDS011;18066;52.106;5.534;2023-09-07T02:58:56;6.80;;;4.90;;
18296;SDS011;18066;52.106;5.534;2023-09-07T03:01:23;5.72;;;4.50;;
18296;SDS011;18066;52.106;5.534;2023-09-07T03:03:50;7.05;;;4.32;;
18296;SDS011;18066;52.106;5.534;2023-09-07T03:06:18;4.68;;;3.92;;
18296;SDS011;18066;52.106;5.534;2023-09-07T03:08:45;5.30;;;4.45;;
18296;SDS011;18066;52.106;5.534;2023-09-07T03:11:12;6.88;;;4.60;;
18296;SDS011;18066;52.106;5.534;2023-09-07T03:13:39;5.47;;;4.47;;
18296;SDS011;18066;52.106;5.534;2023-09-07T03:16:07;11.20;;;4.50;;
18296;SDS011;18066;52.106;5.534;2023-09-07T03:18:34;5.07;;;4.10;;
18296;SDS011;18066;52.106;5.534;2023-09-07T03:21:01;7.53;;;4.32;;
18296;SDS011;18066;52.106;5.534;2023-09-07T03:23:30;4.55;;;3.72;;
18296;SDS011;18066;52.106;5.534;2023-09-07T03:25:59;4.00;;;3.40;;
18296;SDS011;18066;52.106;5.534;2023-09-07T03:28:26;3.50;;;3.15;;
18296;SDS011;18066;52.106;5.534;2023-09-07T03:30:53;5.35;;;4.40;;
18296;SDS011;18066;52.106;5.534;2023-09-07T03:33:20;5.22;;;3.72;;
18296;SDS011;18066;52.106;5.534;2023-09-07T03:35:47;6.80;;;5.15;;
18296;SDS011;18066;52.106;5.534;2023-09-07T03:38:14;5.88;;;4.57;;
18296;SDS011;18066;52.106;5.534;2023-09-07T03:40:42;7.63;;;5.15;;
18296;SDS011;18066;52.106;5.534;2023-09-07T03:43:09;8.32;;;4.28;;
18296;SDS011;18066;52.106;5.534;2023-09-07T03:45:36;4.70;;;3.72;;
18296;SDS011;18066;52.106;5.534;2023-09-07T03:48:03;4.88;;;4.10;;
18296;SDS011;18066;52.106;5.534;2023-09-07T03:50:30;9.88;;;4.65;;
18296;SDS011;18066;52.106;5.534;2023-09-07T03:52:57;5.60;;;4.72;;
18296;SDS011;18066;52.106;5.534;2023-09-07T03:55:24;8.68;;;5.53;;
18296;SDS011;18066;52.106;5.534;2023-09-07T03:57:52;7.50;;;4.22;;
18296;SDS011;18066;52.106;5.534;2023-09-07T04:00:19;6.63;;;3.83;;
18296;SDS011;18066;52.106;5.534;2023-09-07T04:02:46;5.03;;;4.32;;
18296;SDS011;18066;52.106;5.534;2023-09-07T04:05:13;4.75;;;3.97;;
18296;SDS011;18066;52.106;5.534;2023-09-07T04:07:40;6.55;;;4.22;;
18296;SDS011;18066;52.106;5.534;2023-09-07T04:10:07;5.55;;;4.38;;
18296;SDS011;18066;52.106;5.534;2023-09-07T04:12:34;12.48;;;4.55;;
18296;SDS011;18066;52.106;5.534;2023-09-07T04:15:03;5.57;;;4.18;;
18296;SDS011;18066;52.106;5.534;2023-09-07T04:17:30;6.18;;;4.25;;
18296;SDS011;18066;52.106;5.534;2023-09-07T04:20:05;6.80;;;4.50;;
18296;SDS011;18066;52.106;5.534;2023-09-07T04:22:33;6.60;;;4.35;;
18296;SDS011;18066;52.106;5.534;2023-09-07T04:25:00;6.40;;;3.85;;
18296;SDS011;18066;52.106;5.534;2023-09-07T04:27:27;3.40;;;3.10;;
18296;SDS011;18066;52.106;5.534;2023-09-07T04:29:53;6.60;;;3.30;;
18296;SDS011;18066;52.106;5.534;2023-09-07T04:32:22;4.22;;;3.70;;
18296;SDS011;18066;52.106;5.534;2023-09-07T04:34:52;5.68;;;3.58;;
18296;SDS011;18066;52.106;5.534;2023-09-07T04:37:21;6.00;;;4.43;;
18296;SDS011;18066;52.106;5.534;2023-09-07T04:39:50;6.40;;;4.72;;
18296;SDS011;18066;52.106;5.534;2023-09-07T04:42:17;5.50;;;4.43;;
18296;SDS011;18066;52.106;5.534;2023-09-07T04:44:44;7.07;;;5.00;;
18296;SDS011;18066;52.106;5.534;2023-09-07T04:47:11;7.35;;;4.03;;
18296;SDS011;18066;52.106;5.534;2023-09-07T04:49:40;5.05;;;3.97;;
18296;SDS011;18066;52.106;5.534;2023-09-07T04:52:07;6.05;;;4.00;;
18296;SDS011;18066;52.106;5.534;2023-09-07T04:54:34;5.80;;;4.32;;
18296;SDS011;18066;52.106;5.534;2023-09-07T04:57:01;5.25;;;4.00;;
18296;SDS011;18066;52.106;5.534;2023-09-07T04:59:28;6.30;;;4.10;;
18296;SDS011;18066;52.106;5.534;2023-09-07T05:01:54;3.28;;;2.85;;
18296;SDS011;18066;52.106;5.534;2023-09-07T05:04:25;4.60;;;3.53;;
18296;SDS011;18066;52.106;5.534;2023-09-07T05:06:54;4.15;;;3.28;;
18296;SDS011;18066;52.106;5.534;2023-09-07T05:09:22;4.90;;;4.03;;
18296;SDS011;18066;52.106;5.534;2023-09-07T05:11:50;5.55;;;4.05;;
18296;SDS011;18066;52.106;5.534;2023-09-07T05:14:17;6.40;;;4.68;;
18296;SDS011;18066;52.106;5.534;2023-09-07T05:16:44;6.00;;;5.05;;
18296;SDS011;18066;52.106;5.534;2023-09-07T05:19:10;9.90;;;5.45;;
18296;SDS011;18066;52.106;5.534;2023-09-07T05:21:37;6.05;;;4.90;;
18296;SDS011;18066;52.106;5.534;2023-09-07T05:24:06;8.85;;;5.47;;
18296;SDS011;18066;52.106;5.534;2023-09-07T05:26:32;6.95;;;4.68;;
18296;SDS011;18066;52.106;5.534;2023-09-07T05:28:59;8.13;;;4.80;;
18296;SDS011;18066;52.106;5.534;2023-09-07T05:31:26;9.15;;;4.82;;
18296;SDS011;18066;52.106;5.534;2023-09-07T05:33:53;6.47;;;4.50;;
18296;SDS011;18066;52.106;5.534;2023-09-07T05:36:20;8.00;;;4.00;;
18296;SDS011;18066;52.106;5.534;2023-09-07T05:38:46;3.75;;;3.05;;
18296;SDS011;18066;52.106;5.534;2023-09-07T05:41:14;7.38;;;3.53;;
18296;SDS011;18066;52.106;5.534;2023-09-07T05:43:41;4.20;;;3.50;;
18296;SDS011;18066;52.106;5.534;2023-09-07T05:46:08;6.38;;;5.00;;
18296;SDS011;18066;52.106;5.534;2023-09-07T05:48:35;10.50;;;4.93;;
18296;SDS011;18066;52.106;5.534;2023-09-07T05:51:02;7.10;;;4.07;;
18296;SDS011;18066;52.106;5.534;2023-09-07T05:53:29;7.07;;;4.82;;
18296;SDS011;18066;52.106;5.534;2023-09-07T05:55:56;6.80;;;5.32;;
18296;SDS011;18066;52.106;5.534;2023-09-07T05:58:24;7.55;;;4.63;;
18296;SDS011;18066;52.106;5.534;2023-09-07T06:00:51;6.70;;;4.68;;
18296;SDS011;18066;52.106;5.534;2023-09-07T06:03:17;6.82;;;4.63;;
18296;SDS011;18066;52.106;5.534;2023-09-07T06:05:44;6.80;;;5.10;;
18296;SDS011;18066;52.106;5.534;2023-09-07T06:08:11;5.82;;;4.32;;
18296;SDS011;18066;52.106;5.534;2023-09-07T06:10:38;6.90;;;5.35;;
18296;SDS011;18066;52.106;5.534;2023-09-07T06:13:05;6.72;;;4.85;;
18296;SDS011;18066;52.106;5.534;2023-09-07T06:15:33;9.20;;;5.05;;
18296;SDS011;18066;52.106;5.534;2023-09-07T06:18:00;5.18;;;4.45;;
18296;SDS011;18066;52.106;5.534;2023-09-07T06:20:28;7.45;;;5.30;;
18296;SDS011;18066;52.106;5.534;2023-09-07T06:22:55;5.32;;;4.28;;
18296;SDS011;18066;52.106;5.534;2023-09-07T06:25:21;6.88;;;4.75;;
18296;SDS011;18066;52.106;5.534;2023-09-07T06:27:48;7.25;;;4.97;;
18296;SDS011;18066;52.106;5.534;2023-09-07T06:30:15;6.32;;;5.10;;
18296;SDS011;18066;52.106;5.534;2023-09-07T06:32:43;8.70;;;5.18;;
18296;SDS011;18066;52.106;5.534;2023-09-07T06:35:10;7.95;;;5.88;;
18296;SDS011;18066;52.106;5.534;2023-09-07T06:37:37;7.88;;;5.53;;
18296;SDS011;18066;52.106;5.534;2023-09-07T06:40:06;7.35;;;5.63;;
18296;SDS011;18066;52.106;5.534;2023-09-07T06:42:35;10.75;;;6.78;;
18296;SDS011;18066;52.106;5.534;2023-09-07T06:45:02;9.80;;;7.18;;
18296;SDS011;18066;52.106;5.534;2023-09-07T06:47:29;6.53;;;5.47;;
18296;SDS011;18066;52.106;5.534;2023-09-07T06:49:57;9.80;;;5.95;;
18296;SDS011;18066;52.106;5.534;2023-09-07T06:52:24;9.13;;;6.32;;
18296;SDS011;18066;52.106;5.534;2023-09-07T06:54:51;8.68;;;5.82;;
18296;SDS011;18066;52.106;5.534;2023-09-07T06:57:18;10.90;;;5.95;;
18296;SDS011;18066;52.106;5.534;2023-09-07T06:59:45;10.43;;;6.80;;
18296;SDS011;18066;52.106;5.534;2023-09-07T07:02:12;6.57;;;5.47;;
18296;SDS011;18066;52.106;5.534;2023-09-07T07:04:39;15.00;;;7.93;;
18296;SDS011;18066;52.106;5.534;2023-09-07T07:07:07;8.00;;;5.18;;
18296;SDS011;18066;52.106;5.534;2023-09-07T07:09:34;15.93;;;7.97;;
18296;SDS011;18066;52.106;5.534;2023-09-07T07:12:01;10.77;;;7.63;;
18296;SDS011;18066;52.106;5.534;2023-09-07T07:14:29;9.48;;;8.05;;
18296;SDS011;18066;52.106;5.534;2023-09-07T07:16:55;7.07;;;6.18;;
18296;SDS011;18066;52.106;5.534;2023-09-07T07:19:22;10.55;;;7.50;;
18296;SDS011;18066;52.106;5.534;2023-09-07T07:21:49;7.78;;;5.68;;
18296;SDS011;18066;52.106;5.534;2023-09-07T07:24:17;11.35;;;7.25;;
18296;SDS011;18066;52.106;5.534;2023-09-07T07:26:45;12.95;;;6.57;;
18296;SDS011;18066;52.106;5.534;2023-09-07T07:29:12;8.57;;;6.80;;
18296;SDS011;18066;52.106;5.534;2023-09-07T07:31:39;10.60;;;7.68;;
18296;SDS011;18066;52.106;5.534;2023-09-07T07:34:05;8.27;;;5.40;;
18296;SDS011;18066;52.106;5.534;2023-09-07T07:36:32;8.35;;;5.25;;
18296;SDS011;18066;52.106;5.534;2023-09-07T07:38:59;9.70;;;6.13;;
18296;SDS011;18066;52.106;5.534;2023-09-07T07:41:27;8.05;;;5.82;;
18296;SDS011;18066;52.106;5.534;2023-09-07T07:43:54;7.82;;;5.72;;
18296;SDS011;18066;52.106;5.534;2023-09-07T07:46:20;10.95;;;5.88;;
18296;SDS011;18066;52.106;5.534;2023-09-07T07:48:47;10.40;;;6.68;;
18296;SDS011;18066;52.106;5.534;2023-09-07T07:51:14;6.88;;;4.97;;
18296;SDS011;18066;52.106;5.534;2023-09-07T07:53:41;10.52;;;5.65;;
18296;SDS011;18066;52.106;5.534;2023-09-07T07:56:13;7.47;;;6.00;;
18296;SDS011;18066;52.106;5.534;2023-09-07T07:58:42;10.25;;;5.07;;
18296;SDS011;18066;52.106;5.534;2023-09-07T08:01:13;6.10;;;5.05;;
18296;SDS011;18066;52.106;5.534;2023-09-07T08:03:40;8.65;;;5.47;;
18296;SDS011;18066;52.106;5.534;2023-09-07T08:06:07;7.03;;;5.40;;
18296;SDS011;18066;52.106;5.534;2023-09-07T08:08:34;7.47;;;5.22;;
18296;SDS011;18066;52.106;5.534;2023-09-07T08:11:01;7.80;;;4.78;;
18296;SDS011;18066;52.106;5.534;2023-09-07T08:13:30;5.57;;;4.28;;
18296;SDS011;18066;52.106;5.534;2023-09-07T08:15:59;5.25;;;4.25;;
18296;SDS011;18066;52.106;5.534;2023-09-07T08:18:26;6.68;;;4.53;;
18296;SDS011;18066;52.106;5.534;2023-09-07T08:20:53;8.68;;;4.00;;
18296;SDS011;18066;52.106;5.534;2023-09-07T08:23:20;8.52;;;4.20;;
18296;SDS011;18066;52.106;5.534;2023-09-07T08:25:47;4.45;;;3.65;;
18296;SDS011;18066;52.106;5.534;2023-09-07T08:28:14;6.15;;;4.00;;
18296;SDS011;18066;52.106;5.534;2023-09-07T08:30:43;5.63;;;4.00;;
18296;SDS011;18066;52.106;5.534;2023-09-07T08:33:11;4.68;;;3.45;;
18296;SDS011;18066;52.106;5.534;2023-09-07T08:35:38;3.75;;;3.20;;
18296;SDS011;18066;52.106;5.534;2023-09-07T08:38:09;6.00;;;3.80;;
18296;SDS011;18066;52.106;5.534;2023-09-07T08:40:36;6.45;;;3.67;;
18296;SDS011;18066;52.106;5.534;2023-09-07T08:43:05;4.30;;;3.30;;
18296;SDS011;18066;52.106;5.534;2023-09-07T08:45:37;4.38;;;3.28;;
18296;SDS011;18066;52.106;5.534;2023-09-07T08:48:08;3.05;;;2.78;;
18296;SDS011;18066;52.106;5.534;2023-09-07T08:50:37;4.15;;;3.42;;
18296;SDS011;18066;52.106;5.534;2023-09-07T08:53:05;4.32;;;3.22;;
18296;SDS011;18066;52.106;5.534;2023-09-07T08:55:33;7.40;;;3.35;;
18296;SDS011;18066;52.106;5.534;2023-09-07T08:58:00;8.95;;;3.60;;
18296;SDS011;18066;52.106;5.534;2023-09-07T09:00:26;6.38;;;3.50;;
18296;SDS011;18066;52.106;5.534;2023-09-07T09:02:55;10.15;;;4.55;;
18296;SDS011;18066;52.106;5.534;2023-09-07T09:05:23;3.15;;;2.72;;
18296;SDS011;18066;52.106;5.534;2023-09-07T09:08:01;3.95;;;2.70;;
18296;SDS011;18066;52.106;5.534;2023-09-07T09:10:29;3.58;;;2.55;;
18296;SDS011;18066;52.106;5.534;2023-09-07T09:12:56;5.25;;;3.25;;
18296;SDS011;18066;52.106;5.534;2023-09-07T09:15:24;5.32;;;2.65;;
18296;SDS011;18066;52.106;5.534;2023-09-07T09:17:51;3.00;;;2.42;;
18296;SDS011;18066;52.106;5.534;2023-09-07T09:20:22;5.78;;;2.78;;
18296;SDS011;18066;52.106;5.534;2023-09-07T09:22:51;3.40;;;2.50;;
18296;SDS011;18066;52.106;5.534;2023-09-07T09:25:21;3.13;;;2.42;;
18296;SDS011;18066;52.106;5.534;2023-09-07T09:27:48;4.00;;;2.85;;
18296;SDS011;18066;52.106;5.534;2023-09-07T09:30:15;3.35;;;2.55;;
18296;SDS011;18066;52.106;5.534;2023-09-07T09:32:42;3.53;;;2.40;;
18296;SDS011;18066;52.106;5.534;2023-09-07T09:35:09;2.80;;;2.30;;
18296;SDS011;18066;52.106;5.534;2023-09-07T09:37:43;5.18;;;2.20;;
18296;SDS011;18066;52.106;5.534;2023-09-07T09:40:11;3.45;;;2.55;;
18296;SDS011;18066;52.106;5.534;2023-09-07T09:42:40;4.15;;;2.40;;
18296;SDS011;18066;52.106;5.534;2023-09-07T09:45:08;2.85;;;2.35;;
18296;SDS011;18066;52.106;5.534;2023-09-07T09:47:36;2.20;;;2.00;;
18296;SDS011;18066;52.106;5.534;2023-09-07T09:50:06;2.40;;;2.10;;
18296;SDS011;18066;52.106;5.534;2023-09-07T09:52:34;3.67;;;2.70;;
18296;SDS011;18066;52.106;5.534;2023-09-07T09:55:03;3.13;;;2.13;;
18296;SDS011;18066;52.106;5.534;2023-09-07T09:57:32;2.78;;;2.30;;
18296;SDS011;18066;52.106;5.534;2023-09-07T10:00:02;3.63;;;2.75;;
18296;SDS011;18066;52.106;5.534;2023-09-07T10:02:44;2.83;;;2.38;;
18296;SDS011;18066;52.106;5.534;2023-09-07T10:05:14;5.22;;;2.40;;
18296;SDS011;18066;52.106;5.534;2023-09-07T10:07:42;2.65;;;2.22;;
18296;SDS011;18066;52.106;5.534;2023-09-07T10:10:12;3.00;;;2.40;;
18296;SDS011;18066;52.106;5.534;2023-09-07T10:12:40;4.63;;;2.97;;
18296;SDS011;18066;52.106;5.534;2023-09-07T10:15:20;3.95;;;2.67;;
18296;SDS011;18066;52.106;5.534;2023-09-07T10:17:47;3.45;;;2.38;;
18296;SDS011;18066;52.106;5.534;2023-09-07T10:20:17;3.25;;;2.63;;
18296;SDS011;18066;52.106;5.534;2023-09-07T10:22:47;2.92;;;2.63;;
18296;SDS011;18066;52.106;5.534;2023-09-07T10:25:18;8.93;;;2.97;;
18296;SDS011;18066;52.106;5.534;2023-09-07T10:27:46;6.15;;;2.83;;
18296;SDS011;18066;52.106;5.534;2023-09-07T10:30:13;2.78;;;2.50;;
18296;SDS011;18066;52.106;5.534;2023-09-07T10:32:45;3.30;;;2.60;;
18296;SDS011;18066;52.106;5.534;2023-09-07T10:35:13;2.53;;;2.20;;
18296;SDS011;18066;52.106;5.534;2023-09-07T10:37:41;5.88;;;2.10;;
18296;SDS011;18066;52.106;5.534;2023-09-07T10:40:10;4.07;;;2.17;;
18296;SDS011;18066;52.106;5.534;2023-09-07T10:42:38;3.15;;;2.50;;
18296;SDS011;18066;52.106;5.534;2023-09-07T10:45:08;3.72;;;2.60;;
18296;SDS011;18066;52.106;5.534;2023-09-07T10:47:39;4.57;;;2.88;;
18296;SDS011;18066;52.106;5.534;2023-09-07T10:50:09;3.17;;;2.50;;
18296;SDS011;18066;52.106;5.534;2023-09-07T10:52:37;6.22;;;2.70;;
18296;SDS011;18066;52.106;5.534;2023-09-07T10:55:05;3.78;;;2.50;;
18296;SDS011;18066;52.106;5.534;2023-09-07T10:57:32;3.55;;;2.72;;
18296;SDS011;18066;52.106;5.534;2023-09-07T11:00:08;5.22;;;2.35;;
18296;SDS011;18066;52.106;5.534;2023-09-07T11:02:36;4.40;;;2.45;;
18296;SDS011;18066;52.106;5.534;2023-09-07T11:05:03;2.97;;;2.40;;
18296;SDS011;18066;52.106;5.534;2023-09-07T11:07:32;2.53;;;2.25;;
18296;SDS011;18066;52.106;5.534;2023-09-07T11:09:59;3.42;;;2.40;;
18296;SDS011;18066;52.106;5.534;2023-09-07T11:12:29;2.80;;;2.40;;
18296;SDS011;18066;52.106;5.534;2023-09-07T11:14:56;3.00;;;2.40;;
18296;SDS011;18066;52.106;5.534;2023-09-07T11:17:27;4.72;;;2.40;;
18296;SDS011;18066;52.106;5.534;2023-09-07T11:19:53;3.45;;;2.97;;
18296;SDS011;18066;52.106;5.534;2023-09-07T11:22:20;5.43;;;2.50;;
18296;SDS011;18066;52.106;5.534;2023-09-07T11:24:49;2.47;;;2.13;;
18296;SDS011;18066;52.106;5.534;2023-09-07T11:27:17;2.45;;;2.15;;
18296;SDS011;18066;52.106;5.534;2023-09-07T11:29:50;4.38;;;2.65;;
18296;SDS011;18066;52.106;5.534;2023-09-07T11:32:18;3.75;;;2.60;;
18296;SDS011;18066;52.106;5.534;2023-09-07T11:34:47;3.63;;;2.42;;
18296;SDS011;18066;52.106;5.534;2023-09-07T11:37:14;2.58;;;2.30;;
18296;SDS011;18066;52.106;5.534;2023-09-07T11:39:41;5.57;;;2.97;;
18296;SDS011;18066;52.106;5.534;2023-09-07T11:42:09;5.07;;;2.85;;
18296;SDS011;18066;52.106;5.534;2023-09-07T11:44:36;4.40;;;2.60;;
18296;SDS011;18066;52.106;5.534;2023-09-07T11:47:03;5.93;;;2.58;;
18296;SDS011;18066;52.106;5.534;2023-09-07T11:49:30;4.05;;;2.42;;
18296;SDS011;18066;52.106;5.534;2023-09-07T11:51:58;2.70;;;2.22;;
18296;SDS011;18066;52.106;5.534;2023-09-07T11:54:25;3.22;;;2.45;;
18296;SDS011;18066;52.106;5.534;2023-09-07T11:56:52;3.50;;;2.35;;
18296;SDS011;18066;52.106;5.534;2023-09-07T11:59:20;3.42;;;2.70;;
18296;SDS011;18066;52.106;5.534;2023-09-07T12:01:47;2.85;;;2.47;;
18296;SDS011;18066;52.106;5.534;2023-09-07T12:04:14;2.92;;;2.20;;
18296;SDS011;18066;52.106;5.534;2023-09-07T12:06:41;4.05;;;2.50;;
18296;SDS011;18066;52.106;5.534;2023-09-07T12:09:08;3.90;;;2.17;;
18296;SDS011;18066;52.106;5.534;2023-09-07T12:11:35;3.92;;;2.40;;
18296;SDS011;18066;52.106;5.534;2023-09-07T12:14:02;4.10;;;2.30;;
18296;SDS011;18066;52.106;5.534;2023-09-07T12:16:31;3.22;;;2.55;;
18296;SDS011;18066;52.106;5.534;2023-09-07T12:18:58;2.58;;;2.08;;
18296;SDS011;18066;52.106;5.534;2023-09-07T12:21:25;2.92;;;1.95;;
18296;SDS011;18066;52.106;5.534;2023-09-07T12:23:52;3.45;;;2.60;;
18296;SDS011;18066;52.106;5.534;2023-09-07T12:26:18;2.55;;;2.03;;
18296;SDS011;18066;52.106;5.534;2023-09-07T12:28:46;3.45;;;2.33;;
18296;SDS011;18066;52.106;5.534;2023-09-07T12:31:13;2.22;;;2.03;;
18296;SDS011;18066;52.106;5.534;2023-09-07T12:33:41;3.85;;;2.30;;
18296;SDS011;18066;52.106;5.534;2023-09-07T12:36:08;6.40;;;2.30;;
18296;SDS011;18066;52.106;5.534;2023-09-07T12:38:36;2.90;;;2.38;;
18296;SDS011;18066;52.106;5.534;2023-09-07T12:41:03;3.33;;;2.38;;
18296;SDS011;18066;52.106;5.534;2023-09-07T12:43:30;3.30;;;2.63;;
18296;SDS011;18066;52.106;5.534;2023-09-07T12:45:57;2.72;;;2.42;;
18296;SDS011;18066;52.106;5.534;2023-09-07T12:48:24;2.97;;;2.60;;
18296;SDS011;18066;52.106;5.534;2023-09-07T12:50:53;3.05;;;2.40;;
18296;SDS011;18066;52.106;5.534;2023-09-07T12:53:20;3.13;;;2.15;;
18296;SDS011;18066;52.106;5.534;2023-09-07T12:55:49;2.30;;;2.10;;
18296;SDS011;18066;52.106;5.534;2023-09-07T12:58:17;4.90;;;2.65;;
18296;SDS011;18066;52.106;5.534;2023-09-07T13:00:44;3.30;;;2.75;;
18296;SDS011;18066;52.106;5.534;2023-09-07T13:03:13;2.35;;;2.15;;
18296;SDS011;18066;52.106;5.534;2023-09-07T13:05:39;18.83;;;5.95;;
18296;SDS011;18066;52.106;5.534;2023-09-07T13:08:08;4.10;;;2.55;;
18296;SDS011;18066;52.106;5.534;2023-09-07T13:10:34;8.98;;;3.30;;
18296;SDS011;18066;52.106;5.534;2023-09-07T13:13:01;8.38;;;3.22;;
18296;SDS011;18066;52.106;5.534;2023-09-07T13:15:28;6.93;;;3.10;;
18296;SDS011;18066;52.106;5.534;2023-09-07T13:17:55;3.53;;;2.40;;
18296;SDS011;18066;52.106;5.534;2023-09-07T13:20:22;6.93;;;2.30;;
18296;SDS011;18066;52.106;5.534;2023-09-07T13:22:48;2.70;;;2.45;;
18296;SDS011;18066;52.106;5.534;2023-09-07T13:25:17;2.67;;;2.20;;
18296;SDS011;18066;52.106;5.534;2023-09-07T13:27:43;3.22;;;2.00;;
18296;SDS011;18066;52.106;5.534;2023-09-07T13:30:10;3.22;;;2.33;;
18296;SDS011;18066;52.106;5.534;2023-09-07T13:32:38;2.42;;;2.15;;
18296;SDS011;18066;52.106;5.534;2023-09-07T13:35:05;4.35;;;2.80;;
18296;SDS011;18066;52.106;5.534;2023-09-07T13:37:32;2.35;;;2.13;;
18296;SDS011;18066;52.106;5.534;2023-09-07T13:40:00;2.30;;;1.92;;
18296;SDS011;18066;52.106;5.534;2023-09-07T13:42:29;4.45;;;2.17;;
18296;SDS011;18066;52.106;5.534;2023-09-07T13:44:56;4.25;;;2.05;;
18296;SDS011;18066;52.106;5.534;2023-09-07T13:47:23;3.13;;;2.22;;
18296;SDS011;18066;52.106;5.534;2023-09-07T13:49:50;3.25;;;2.47;;
18296;SDS011;18066;52.106;5.534;2023-09-07T13:52:17;4.55;;;2.63;;
18296;SDS011;18066;52.106;5.534;2023-09-07T13:54:44;2.67;;;2.42;;
18296;SDS011;18066;52.106;5.534;2023-09-07T13:57:10;2.95;;;2.40;;
18296;SDS011;18066;52.106;5.534;2023-09-07T13:59:39;2.95;;;2.30;;
18296;SDS011;18066;52.106;5.534;2023-09-07T14:02:05;3.13;;;2.47;;
18296;SDS011;18066;52.106;5.534;2023-09-07T14:04:32;3.72;;;2.67;;
18296;SDS011;18066;52.106;5.534;2023-09-07T14:06:59;3.17;;;2.35;;
18296;SDS011;18066;52.106;5.534;2023-09-07T14:09:26;2.92;;;2.47;;
18296;SDS011;18066;52.106;5.534;2023-09-07T14:11:52;2.42;;;2.17;;
18296;SDS011;18066;52.106;5.534;2023-09-07T14:14:19;4.22;;;2.80;;
18296;SDS011;18066;52.106;5.534;2023-09-07T14:16:47;3.00;;;2.33;;
18296;SDS011;18066;52.106;5.534;2023-09-07T14:19:15;3.65;;;2.20;;
18296;SDS011;18066;52.106;5.534;2023-09-07T14:21:42;3.85;;;2.47;;
18296;SDS011;18066;52.106;5.534;2023-09-07T14:24:08;4.18;;;2.55;;
18296;SDS011;18066;52.106;5.534;2023-09-07T14:26:35;2.53;;;2.10;;
18296;SDS011;18066;52.106;5.534;2023-09-07T14:29:02;4.05;;;2.50;;
18296;SDS011;18066;52.106;5.534;2023-09-07T14:31:30;3.63;;;2.50;;
18296;SDS011;18066;52.106;5.534;2023-09-07T14:33:58;2.92;;;2.40;;
18296;SDS011;18066;52.106;5.534;2023-09-07T14:36:25;3.08;;;2.30;;
18296;SDS011;18066;52.106;5.534;2023-09-07T14:38:52;3.13;;;2.22;;
18296;SDS011;18066;52.106;5.534;2023-09-07T14:41:18;2.08;;;1.88;;
18296;SDS011;18066;52.106;5.534;2023-09-07T14:43:46;4.93;;;2.47;;
18296;SDS011;18066;52.106;5.534;2023-09-07T14:46:14;3.92;;;2.50;;
18296;SDS011;18066;52.106;5.534;2023-09-07T14:48:41;3.35;;;2.70;;
18296;SDS011;18066;52.106;5.534;2023-09-07T14:51:09;3.35;;;2.15;;